createdAt,value
2023-04-15T00:01:19.012Z,8.00
2023-04-15T00:03:46.447Z,7.50
2023-04-15T00:06:14.492Z,7.63
2023-04-15T00:08:41.951Z,7.72
2023-04-15T00:11:09.450Z,8.20
2023-04-15T00:13:36.460Z,7.72
2023-04-15T00:16:04.516Z,7.88
2023-04-15T00:18:31.873Z,7.95
2023-04-15T00:20:59.503Z,8.48
2023-04-15T00:23:27.028Z,8.23
2023-04-15T00:25:54.964Z,7.80
2023-04-15T00:28:22.522Z,8.27
2023-04-15T00:30:50.834Z,8.60
2023-04-15T00:33:18.298Z,8.52
2023-04-15T00:35:45.957Z,7.90
2023-04-15T00:38:13.209Z,8.48
2023-04-15T00:40:43.677Z,8.60
2023-04-15T00:43:11.163Z,8.95
2023-04-15T00:45:39.019Z,8.48
2023-04-15T00:48:06.401Z,8.30
2023-04-15T00:50:34.013Z,8.63
2023-04-15T00:53:01.193Z,8.90
2023-04-15T00:55:28.530Z,9.10
2023-04-15T00:57:57.264Z,8.88
2023-04-15T01:00:25.079Z,8.38
2023-04-15T01:02:53.216Z,7.95
2023-04-15T01:05:21.051Z,8.35
2023-04-15T01:07:48.906Z,9.27
2023-04-15T01:10:16.419Z,7.82
2023-04-15T01:12:43.844Z,8.23
2023-04-15T01:15:11.346Z,8.43
2023-04-15T01:17:39.548Z,8.65
2023-04-15T01:20:10.639Z,9.88
2023-04-15T01:22:39.481Z,9.68
2023-04-15T01:25:18.154Z,10.25
2023-04-15T01:27:45.933Z,9.85
2023-04-15T01:30:13.280Z,11.10
2023-04-15T01:32:40.279Z,10.73
2023-04-15T01:35:08.090Z,10.07
2023-04-15T01:37:35.556Z,10.88
2023-04-15T01:40:03.560Z,10.07
2023-04-15T01:42:32.903Z,10.57
2023-04-15T01:45:00.173Z,10.98
2023-04-15T01:47:27.254Z,11.18
2023-04-15T01:49:54.691Z,10.30
2023-04-15T01:52:22.391Z,10.43
2023-04-15T01:54:49.663Z,10.73
2023-04-15T01:57:16.814Z,10.52
2023-04-15T01:59:44.097Z,10.75
2023-04-15T02:02:11.420Z,10.10
2023-04-15T02:04:39.216Z,12.80
2023-04-15T02:07:07.179Z,11.20
2023-04-15T02:09:35.857Z,11.00
2023-04-15T02:12:02.842Z,11.10
2023-04-15T02:14:30.232Z,10.90
2023-04-15T02:16:57.244Z,11.20
2023-04-15T02:19:25.265Z,10.70
2023-04-15T02:21:52.544Z,11.55
2023-04-15T02:24:19.749Z,11.98
2023-04-15T02:26:46.788Z,11.38
2023-04-15T02:29:15.941Z,11.27
2023-04-15T02:31:44.169Z,12.02
2023-04-15T02:34:11.547Z,12.10
2023-04-15T02:36:39.196Z,12.02
2023-04-15T02:39:07.262Z,12.02
2023-04-15T02:41:35.063Z,11.45
2023-04-15T02:44:04.273Z,11.25
2023-04-15T02:46:31.691Z,11.98
2023-04-15T02:49:00.335Z,11.13
2023-04-15T02:51:31.338Z,12.05
2023-04-15T02:53:59.292Z,12.70
2023-04-15T02:56:27.367Z,12.95
2023-04-15T02:58:56.528Z,11.35
2023-04-15T03:02:20.358Z,12.82
2023-04-15T03:05:08.681Z,12.32
2023-04-15T03:07:36.183Z,12.63
2023-04-15T03:10:03.776Z,12.45
2023-04-15T03:12:31.078Z,11.90
2023-04-15T03:15:00.517Z,12.32
2023-04-15T03:17:33.901Z,12.77
2023-04-15T03:20:05.429Z,11.68
2023-04-15T03:22:33.412Z,12.27
2023-04-15T03:25:01.014Z,12.38
2023-04-15T03:27:28.382Z,12.02
2023-04-15T03:29:59.926Z,12.18
2023-04-15T03:32:29.751Z,13.23
2023-04-15T03:34:57.356Z,11.57
2023-04-15T03:37:24.353Z,12.40
2023-04-15T03:39:51.716Z,12.57
2023-04-15T03:42:18.594Z,11.80
2023-04-15T03:44:46.681Z,13.20
2023-04-15T03:47:13.653Z,12.43
2023-04-15T03:49:41.474Z,11.85
2023-04-15T03:52:08.382Z,11.75
2023-04-15T03:54:35.700Z,12.50
2023-04-15T03:57:02.705Z,13.48
2023-04-15T03:59:30.787Z,12.75
2023-04-15T04:01:57.998Z,11.52
2023-04-15T04:04:25.591Z,11.25
2023-04-15T04:06:52.628Z,12.30
2023-04-15T04:09:20.176Z,11.70
2023-04-15T04:11:47.595Z,12.45
2023-04-15T04:14:15.174Z,11.38
2023-04-15T04:16:42.228Z,11.82
2023-04-15T04:19:09.495Z,11.45
2023-04-15T04:21:36.889Z,11.82
2023-04-15T04:24:04.205Z,12.10
2023-04-15T04:26:31.447Z,11.80
2023-04-15T04:28:58.916Z,12.20
2023-04-15T04:31:26.433Z,12.35
2023-04-15T04:33:53.744Z,12.05
2023-04-15T04:36:20.783Z,13.13
2023-04-15T04:38:47.918Z,12.68
2023-04-15T04:41:15.083Z,11.90
2023-04-15T04:43:42.509Z,13.10
2023-04-15T04:46:10.195Z,11.35
2023-04-15T04:48:37.423Z,11.55
2023-04-15T04:51:05.035Z,12.73
2023-04-15T04:53:32.334Z,11.23
2023-04-15T04:55:59.818Z,13.00
2023-04-15T04:58:27.369Z,11.80
2023-04-15T05:00:54.634Z,12.35
2023-04-15T05:03:22.224Z,11.63
2023-04-15T05:05:49.518Z,11.52
2023-04-15T05:08:16.852Z,12.68
2023-04-15T05:10:44.877Z,13.10
2023-04-15T05:13:12.371Z,13.52
2023-04-15T05:15:41.436Z,13.32
2023-04-15T05:18:08.783Z,11.48
2023-04-15T05:20:36.185Z,11.57
2023-04-15T05:23:03.776Z,12.10
2023-04-15T05:25:30.987Z,11.25
2023-04-15T05:27:58.294Z,11.15
2023-04-15T05:30:25.518Z,11.15
2023-04-15T05:32:53.006Z,12.85
2023-04-15T05:35:20.387Z,11.45
2023-04-15T05:37:48.301Z,11.23
2023-04-15T05:40:15.816Z,12.30
2023-04-15T05:42:43.278Z,11.65
2023-04-15T05:45:10.796Z,11.40
2023-04-15T05:47:38.649Z,11.02
2023-04-15T05:50:08.263Z,12.15
2023-04-15T05:52:36.120Z,10.55
2023-04-15T05:55:03.366Z,11.25
2023-04-15T05:57:30.939Z,10.52
2023-04-15T05:59:57.915Z,11.80
2023-04-15T06:02:26.660Z,11.02
2023-04-15T06:04:53.868Z,10.68
2023-04-15T06:07:21.253Z,11.20
2023-04-15T06:09:48.688Z,10.55
2023-04-15T06:12:17.101Z,10.85
2023-04-15T06:14:44.262Z,10.73
2023-04-15T06:17:11.868Z,10.95
2023-04-15T06:19:38.994Z,11.23
2023-04-15T06:22:07.369Z,11.13
2023-04-15T06:24:34.412Z,11.05
2023-04-15T06:27:02.469Z,11.10
2023-04-15T06:29:29.747Z,10.10
2023-04-15T06:31:57.046Z,10.25
2023-04-15T06:34:24.344Z,11.30
2023-04-15T06:36:51.593Z,9.82
2023-04-15T06:39:18.583Z,10.30
2023-04-15T06:41:46.094Z,10.13
2023-04-15T06:44:13.147Z,9.57
2023-04-15T06:46:40.667Z,10.55
2023-04-15T06:49:08.220Z,10.05
2023-04-15T06:51:36.349Z,9.20
2023-04-15T06:54:06.185Z,9.70
2023-04-15T06:56:33.934Z,9.13
2023-04-15T06:59:01.910Z,9.25
2023-04-15T07:01:30.164Z,9.20
2023-04-15T07:03:57.353Z,9.27
2023-04-15T07:06:24.808Z,9.05
2023-04-15T07:08:51.930Z,9.20
2023-04-15T07:11:20.155Z,9.15
2023-04-15T07:13:47.616Z,8.20
2023-04-15T07:16:15.101Z,8.10
2023-04-15T07:18:43.504Z,8.52
2023-04-15T07:21:11.352Z,7.72
2023-04-15T07:23:38.660Z,8.23
2023-04-15T07:26:06.109Z,8.45
2023-04-15T07:28:33.397Z,8.25
2023-04-15T07:31:00.852Z,7.70
2023-04-15T07:33:28.178Z,7.82
2023-04-15T07:35:55.405Z,8.65
2023-04-15T07:38:23.292Z,8.15
2023-04-15T07:40:50.874Z,7.63
2023-04-15T07:43:18.223Z,7.85
2023-04-15T07:45:45.520Z,6.80
2023-04-15T07:48:12.524Z,8.27
2023-04-15T07:50:40.009Z,6.78
2023-04-15T07:53:07.839Z,8.00
2023-04-15T07:55:35.033Z,7.40
2023-04-15T07:58:02.338Z,7.53
2023-04-15T08:00:29.651Z,7.50
2023-04-15T08:02:57.596Z,7.30
2023-04-15T08:05:25.862Z,7.00
2023-04-15T08:07:52.937Z,6.60
2023-04-15T08:10:20.650Z,6.90
2023-04-15T08:12:49.596Z,6.22
2023-04-15T08:15:16.978Z,7.43
2023-04-15T08:17:43.983Z,7.25
2023-04-15T08:20:12.010Z,6.45
2023-04-15T08:22:39.443Z,6.57
2023-04-15T08:25:07.277Z,5.38
2023-04-15T08:27:34.469Z,6.10
2023-04-15T08:30:04.683Z,6.13
2023-04-15T08:32:32.279Z,5.88
2023-04-15T08:35:00.730Z,5.68
2023-04-15T08:37:27.918Z,5.60
2023-04-15T08:39:55.192Z,6.18
2023-04-15T08:42:35.260Z,5.75
2023-04-15T08:45:04.766Z,5.43
2023-04-15T08:47:32.223Z,4.90
2023-04-15T08:50:00.009Z,5.10
2023-04-15T08:52:27.181Z,5.45
2023-04-15T08:55:00.879Z,5.35
2023-04-15T08:57:31.568Z,5.53
2023-04-15T08:59:59.324Z,5.13
2023-04-15T09:02:27.370Z,4.32
2023-04-15T09:04:55.039Z,4.90
2023-04-15T09:07:22.060Z,4.70
2023-04-15T09:09:50.430Z,4.28
2023-04-15T09:12:17.608Z,4.20
2023-04-15T09:14:47.351Z,3.75
2023-04-15T09:17:19.582Z,4.82
2023-04-15T09:19:47.816Z,4.00
2023-04-15T09:22:15.577Z,4.68
2023-04-15T09:24:43.551Z,5.00
2023-04-15T09:27:11.223Z,3.90
2023-04-15T09:29:38.613Z,4.18
2023-04-15T09:32:15.658Z,4.68
2023-04-15T09:34:43.636Z,3.80
2023-04-15T09:37:11.295Z,4.53
2023-04-15T09:39:50.185Z,3.72
2023-04-15T09:42:24.088Z,4.50
2023-04-15T09:44:53.130Z,3.60
2023-04-15T09:47:33.101Z,3.80
2023-04-15T09:50:01.810Z,3.40
2023-04-15T09:52:29.823Z,3.50
2023-04-15T09:54:59.249Z,3.53
2023-04-15T09:57:34.346Z,3.92
2023-04-15T10:00:01.752Z,3.75
2023-04-15T10:02:31.031Z,3.97
2023-04-15T10:04:59.787Z,3.30
2023-04-15T10:07:27.199Z,3.55
2023-04-15T10:09:55.249Z,3.33
2023-04-15T10:12:22.929Z,4.03
2023-04-15T10:14:56.372Z,3.83
2023-04-15T10:17:26.890Z,3.45
2023-04-15T10:19:55.621Z,3.65
2023-04-15T10:22:28.218Z,3.83
2023-04-15T10:24:57.196Z,3.75
2023-04-15T10:27:24.656Z,4.00
2023-04-15T10:29:52.412Z,3.97
2023-04-15T10:32:21.977Z,2.92
2023-04-15T10:34:54.465Z,3.20
2023-04-15T10:37:23.418Z,3.60
2023-04-15T10:39:50.861Z,3.55
2023-04-15T10:42:20.926Z,3.75
2023-04-15T10:44:56.697Z,3.53
2023-04-15T10:47:24.083Z,3.25
2023-04-15T10:50:00.454Z,3.10
2023-04-15T10:52:29.368Z,3.75
2023-04-15T10:55:09.538Z,3.25
2023-04-15T10:57:39.397Z,3.05
2023-04-15T11:00:13.045Z,3.30
2023-04-15T11:02:44.602Z,3.67
2023-04-15T11:05:13.986Z,3.65
2023-04-15T11:07:41.193Z,3.33
2023-04-15T11:10:14.471Z,3.65
2023-04-15T11:12:42.051Z,3.40
2023-04-15T11:15:28.569Z,3.13
2023-04-15T11:17:57.513Z,3.58
2023-04-15T11:20:25.289Z,3.47
2023-04-15T11:23:14.089Z,3.70
2023-04-15T11:25:41.909Z,3.22
2023-04-15T11:28:09.391Z,3.47
2023-04-15T11:30:38.091Z,3.15
2023-04-15T11:33:08.618Z,3.60
2023-04-15T11:35:36.379Z,3.88
2023-04-15T11:38:09.703Z,4.05
2023-04-15T11:40:38.277Z,3.85
2023-04-15T11:43:16.696Z,3.28
2023-04-15T11:45:56.613Z,3.90
2023-04-15T11:48:29.335Z,3.92
2023-04-15T11:51:00.797Z,4.93
2023-04-15T11:53:45.079Z,4.68
2023-04-15T11:56:20.260Z,4.45
2023-04-15T11:58:48.369Z,4.60
2023-04-15T12:01:15.591Z,4.70
2023-04-15T12:03:45.823Z,5.05
2023-04-15T12:06:16.959Z,5.13
2023-04-15T12:09:12.509Z,4.63
2023-04-15T12:11:51.521Z,4.70
2023-04-15T12:14:29.212Z,4.65
2023-04-15T12:17:02.088Z,4.70
2023-04-15T12:19:36.886Z,4.75
2023-04-15T12:22:12.974Z,4.80
2023-04-15T12:24:40.742Z,5.05
2023-04-15T12:27:10.969Z,4.43
2023-04-15T12:29:39.849Z,4.50
2023-04-15T12:32:08.941Z,4.05
2023-04-15T12:34:38.743Z,3.38
2023-04-15T12:37:07.915Z,4.07
2023-04-15T12:39:39.951Z,3.97
2023-04-15T12:42:08.467Z,3.63
2023-04-15T12:44:37.083Z,3.47
2023-04-15T12:47:05.732Z,3.85
2023-04-15T12:49:33.005Z,4.10
2023-04-15T12:52:02.072Z,2.90
2023-04-15T12:54:30.253Z,2.72
2023-04-15T12:56:58.799Z,2.80
2023-04-15T12:59:25.808Z,2.85
2023-04-15T13:01:54.631Z,2.90
2023-04-15T13:04:22.399Z,3.75
2023-04-15T13:06:50.822Z,3.67
2023-04-15T13:09:17.796Z,3.60
2023-04-15T13:11:45.610Z,3.50
2023-04-15T13:14:13.089Z,2.83
2023-04-15T13:16:40.974Z,3.03
2023-04-15T13:19:08.018Z,1.88
2023-04-15T13:21:36.416Z,1.92
2023-04-15T13:24:05.179Z,1.73
2023-04-15T13:26:33.005Z,1.80
2023-04-15T13:29:01.341Z,1.38
2023-04-15T13:31:28.923Z,1.70
2023-04-15T13:33:57.552Z,1.80
2023-04-15T13:36:25.109Z,1.52
2023-04-15T13:38:52.173Z,1.98
2023-04-15T13:41:20.141Z,2.50
2023-04-15T13:43:47.352Z,2.15
2023-04-15T13:46:15.051Z,2.10
2023-04-15T13:48:42.182Z,2.10
2023-04-15T13:51:10.024Z,1.98
2023-04-15T13:53:39.151Z,2.15
2023-04-15T13:56:10.660Z,1.80
2023-04-15T13:58:38.492Z,1.75
2023-04-15T14:01:07.401Z,2.03
2023-04-15T14:03:36.637Z,1.98
2023-04-15T14:06:05.696Z,2.08
2023-04-15T14:08:33.284Z,2.40
2023-04-15T14:11:00.793Z,2.00
2023-04-15T14:13:28.002Z,2.58
2023-04-15T14:15:57.193Z,2.10
2023-04-15T14:18:24.554Z,2.00
2023-04-15T14:20:51.969Z,2.13
2023-04-15T14:23:19.966Z,1.73
2023-04-15T14:25:48.346Z,1.70
2023-04-15T14:28:15.823Z,1.75
2023-04-15T14:30:43.732Z,2.08
2023-04-15T14:33:11.056Z,1.73
2023-04-15T14:35:39.128Z,1.80
2023-04-15T14:38:08.199Z,1.90
2023-04-15T14:40:35.463Z,2.22
2023-04-15T14:43:03.049Z,2.83
2023-04-15T14:45:30.746Z,1.60
2023-04-15T14:47:58.829Z,2.10
2023-04-15T14:50:26.039Z,1.83
2023-04-15T14:52:53.124Z,1.70
2023-04-15T14:55:20.507Z,1.77
2023-04-15T14:57:47.701Z,1.60
2023-04-15T15:00:16.174Z,1.85
2023-04-15T15:02:44.052Z,1.40
2023-04-15T15:05:12.009Z,1.73
2023-04-15T15:07:40.967Z,1.92
2023-04-15T15:10:09.337Z,1.40
2023-04-15T15:12:36.462Z,1.60
2023-04-15T15:15:09.270Z,1.40
2023-04-15T15:17:43.700Z,1.30
2023-04-15T15:20:11.323Z,1.30
2023-04-15T15:22:38.329Z,1.60
2023-04-15T15:25:06.028Z,1.60
2023-04-15T15:27:32.985Z,1.20
2023-04-15T15:30:00.549Z,1.52
2023-04-15T15:32:27.707Z,1.05
2023-04-15T15:34:55.507Z,1.08
2023-04-15T15:37:22.636Z,1.20
2023-04-15T15:39:52.768Z,1.30
2023-04-15T15:42:20.105Z,1.33
2023-04-15T15:44:49.413Z,1.50
2023-04-15T15:47:17.032Z,1.38
2023-04-15T15:49:44.575Z,1.40
2023-04-15T15:52:12.242Z,1.38
2023-04-15T15:54:40.767Z,1.23
2023-04-15T15:57:08.061Z,1.63
2023-04-15T15:59:35.981Z,1.40
2023-04-15T16:02:03.235Z,1.52
2023-04-15T16:04:31.155Z,1.20
2023-04-15T16:06:58.138Z,1.70
2023-04-15T16:09:26.204Z,1.60
2023-04-15T16:11:53.110Z,1.17
2023-04-15T16:14:21.534Z,1.40
2023-04-15T16:16:48.704Z,1.50
2023-04-15T16:19:16.491Z,1.27
2023-04-15T16:21:44.635Z,1.45
2023-04-15T16:24:11.926Z,1.38
2023-04-15T16:26:40.959Z,1.75
2023-04-15T16:29:08.543Z,1.40
2023-04-15T16:31:37.356Z,3.75
2023-04-15T16:34:04.667Z,1.42
2023-04-15T16:36:32.969Z,1.67
2023-04-15T16:39:00.502Z,1.70
2023-04-15T16:41:28.400Z,1.33
2023-04-15T16:43:57.566Z,1.60
2023-04-15T16:46:24.865Z,1.48
2023-04-15T16:48:52.323Z,1.73
2023-04-15T16:51:19.511Z,1.60
2023-04-15T16:53:47.067Z,1.60
2023-04-15T16:56:14.388Z,1.80
2023-04-15T16:58:42.024Z,2.17
2023-04-15T17:01:09.153Z,2.80
2023-04-15T17:03:36.983Z,2.75
2023-04-15T17:06:04.548Z,2.35
2023-04-15T17:08:32.096Z,2.35
2023-04-15T17:10:59.049Z,2.45
2023-04-15T17:13:26.657Z,2.60
2023-04-15T17:15:55.777Z,2.25
2023-04-15T17:18:23.405Z,2.28
2023-04-15T17:20:50.762Z,2.47
2023-04-15T17:23:17.953Z,2.50
2023-04-15T17:25:45.003Z,2.55
2023-04-15T17:28:12.156Z,3.53
2023-04-15T17:30:39.660Z,2.90
2023-04-15T17:33:53.451Z,2.92
2023-04-15T17:35:54.244Z,2.17
2023-04-15T17:38:21.565Z,2.10
2023-04-15T17:40:48.453Z,1.95
2023-04-15T17:43:15.731Z,2.05
2023-04-15T17:45:43.835Z,2.10
2023-04-15T17:48:11.079Z,2.20
2023-04-15T17:50:38.986Z,2.65
2023-04-15T17:53:06.692Z,2.10
2023-04-15T17:55:33.820Z,2.13
2023-04-15T17:58:01.338Z,2.47
2023-04-15T18:00:28.624Z,2.83
2023-04-15T18:02:56.400Z,2.63
2023-04-15T18:05:23.746Z,2.10
2023-04-15T18:07:53.885Z,2.10
2023-04-15T18:10:20.913Z,2.20
2023-04-15T18:12:48.321Z,2.25
2023-04-15T18:15:15.531Z,2.30
2023-04-15T18:17:43.037Z,2.10
2023-04-15T18:20:10.698Z,2.10
2023-04-15T18:22:37.968Z,1.88
2023-04-15T18:25:05.499Z,2.30
2023-04-15T18:27:34.430Z,2.42
2023-04-15T18:30:01.469Z,1.88
2023-04-15T18:32:31.921Z,1.75
2023-04-15T18:34:59.438Z,1.80
2023-04-15T18:37:29.438Z,1.70
2023-04-15T18:39:56.928Z,1.75
2023-04-15T18:42:25.340Z,2.42
2023-04-15T18:44:53.284Z,3.35
2023-04-15T18:47:20.577Z,2.60
2023-04-15T18:49:47.737Z,2.88
2023-04-15T18:52:15.258Z,3.20
2023-04-15T18:54:42.129Z,2.90
2023-04-15T18:57:09.600Z,2.35
2023-04-15T18:59:36.984Z,2.20
2023-04-15T19:02:06.608Z,2.42
2023-04-15T19:04:34.089Z,2.33
2023-04-15T19:07:02.044Z,2.70
2023-04-15T19:09:29.606Z,2.33
2023-04-15T19:11:57.680Z,2.80
2023-04-15T19:14:24.903Z,2.38
2023-04-15T19:16:52.518Z,2.33
2023-04-15T19:19:19.495Z,2.40
2023-04-15T19:21:49.811Z,2.35
2023-04-15T19:24:18.119Z,2.00
2023-04-15T19:26:52.545Z,2.42
2023-04-15T19:29:19.651Z,2.38
2023-04-15T19:31:46.805Z,2.45
2023-04-15T19:34:14.325Z,1.85
2023-04-15T19:36:42.167Z,2.10
2023-04-15T19:39:10.150Z,2.28
2023-04-15T19:41:38.696Z,2.35
2023-04-15T19:44:06.131Z,2.10
2023-04-15T19:46:33.626Z,1.90
2023-04-15T19:49:01.439Z,2.00
2023-04-15T19:51:28.682Z,2.03
2023-04-15T19:53:56.919Z,1.70
2023-04-15T19:56:24.247Z,1.90
2023-04-15T19:58:53.160Z,2.60
2023-04-15T20:01:20.928Z,2.17
2023-04-15T20:03:49.032Z,2.00
2023-04-15T20:06:16.735Z,2.38
2023-04-15T20:08:43.716Z,2.03
2023-04-15T20:11:12.269Z,2.30
2023-04-15T20:13:42.098Z,2.80
2023-04-15T20:16:09.557Z,2.22
2023-04-15T20:18:36.767Z,2.63
2023-04-15T20:21:04.194Z,2.55
2023-04-15T20:23:31.166Z,2.50
2023-04-15T20:25:59.052Z,2.22
2023-04-15T20:28:27.685Z,2.33
2023-04-15T20:30:55.038Z,2.53
2023-04-15T20:33:22.381Z,2.67
2023-04-15T20:35:49.978Z,2.28
2023-04-15T20:38:17.526Z,2.55
2023-04-15T20:40:44.697Z,2.67
2023-04-15T20:43:11.842Z,2.97
2023-04-15T20:45:39.084Z,2.55
2023-04-15T20:48:06.416Z,2.80
2023-04-15T20:50:34.479Z,2.80
2023-04-15T20:53:02.516Z,2.38
2023-04-15T20:55:30.769Z,2.75
2023-04-15T20:57:59.101Z,3.10
2023-04-15T21:00:26.384Z,2.63
2023-04-15T21:02:53.721Z,2.60
2023-04-15T21:05:21.618Z,2.92
2023-04-15T21:07:48.716Z,2.50
2023-04-15T21:10:16.334Z,2.85
2023-04-15T21:12:43.338Z,2.80
2023-04-15T21:15:11.143Z,3.10
2023-04-15T21:17:38.957Z,2.80
2023-04-15T21:20:06.763Z,2.85
2023-04-15T21:22:33.620Z,3.05
2023-04-15T21:25:01.211Z,3.33
2023-04-15T21:27:28.283Z,2.92
2023-04-15T21:29:55.927Z,2.80
2023-04-15T21:32:23.111Z,3.28
2023-04-15T21:34:50.679Z,3.17
2023-04-15T21:37:17.562Z,3.22
2023-04-15T21:39:44.909Z,3.10
2023-04-15T21:42:11.812Z,2.47
2023-04-15T21:44:39.217Z,3.05
2023-04-15T21:47:06.250Z,2.90
2023-04-15T21:49:33.887Z,2.70
2023-04-15T21:52:01.512Z,2.67
2023-04-15T21:54:28.765Z,2.80
2023-04-15T21:56:57.022Z,2.65
2023-04-15T21:59:24.168Z,2.85
2023-04-15T22:01:51.292Z,2.80
2023-04-15T22:04:18.998Z,2.70
2023-04-15T22:06:46.453Z,3.03
2023-04-15T22:09:14.472Z,3.30
2023-04-15T22:11:41.661Z,2.80
2023-04-15T22:14:09.425Z,2.90
2023-04-15T22:16:36.530Z,2.50
2023-04-15T22:19:04.293Z,2.67
2023-04-15T22:21:31.826Z,2.60
2023-04-15T22:24:32.195Z,3.05
2023-04-15T22:26:46.305Z,3.05
2023-04-15T22:29:13.816Z,2.83
2023-04-15T22:31:40.815Z,3.08
2023-04-15T22:34:08.634Z,4.75
2023-04-15T22:36:36.085Z,3.42
2023-04-15T22:39:03.667Z,3.17
2023-04-15T22:41:30.751Z,3.00
2023-04-15T22:43:57.966Z,3.25
2023-04-15T22:46:25.099Z,3.20
2023-04-15T22:48:54.149Z,3.65
2023-04-15T22:51:22.211Z,3.42
2023-04-15T22:53:50.478Z,3.20
2023-04-15T22:56:22.199Z,3.53
2023-04-15T22:58:50.104Z,4.85
2023-04-15T23:01:18.033Z,3.65
2023-04-15T23:03:57.388Z,3.25
2023-04-15T23:06:33.067Z,3.08
2023-04-15T23:09:00.580Z,3.05
2023-04-15T23:11:27.454Z,3.30
2023-04-15T23:13:54.611Z,3.40
2023-04-15T23:16:22.322Z,3.13
2023-04-15T23:18:49.582Z,3.63
2023-04-15T23:21:17.179Z,3.45
2023-04-15T23:23:44.691Z,3.80
2023-04-15T23:26:11.842Z,3.70
2023-04-15T23:28:38.980Z,3.38
2023-04-15T23:31:07.250Z,3.70
2023-04-15T23:33:34.512Z,3.92
2023-04-15T23:36:01.602Z,3.85
2023-04-15T23:38:28.969Z,4.22
2023-04-15T23:40:55.854Z,3.80
2023-04-15T23:43:23.314Z,3.95
2023-04-15T23:45:50.231Z,4.30
2023-04-15T23:48:18.090Z,3.97
2023-04-15T23:50:45.469Z,4.50
2023-04-15T23:53:12.688Z,3.72
2023-04-15T23:55:39.524Z,4.65
2023-04-15T23:58:06.767Z,3.88
